Deerwood, MN (56444)

8:12 AM CST on December 04, 2016 (GMT -0600)
Rural Deerwood | | Change Station

Elev 1089 ft 46.44 °N, 93.91 °W | Updated 22 seconds ago

Light Snow
Light Snow
30.2 °F
Feels Like 27 °F
N
3.2
Wind Variable Wind from SSE

Today
High -- | Low -- °F
--% Chance of Precip.
Yesterday
High -- | Low -- °F
Precip. -- in
Pressure 29.85 in
Visibility 5.0 miles
Clouds Overcast 1000 ft
Windchill 27 °F
Dew Point 28 °F
Humidity 93%
Rainfall 0.00 in
Snow Depth Not available.
7:42 AM 4:29 PM
Waxing Crescent, 23% visible
METAR KAIT 041353Z AUTO 15009KT 5SM -SN OVC010 00/M03 A2985 RMK AO2
Pressure 29.85 in
Visibility 5.0 miles
Clouds Overcast 1000 ft
Windchill 27 °F
Dew Point 28 °F
Humidity 93%
Rainfall 0.00 in
Snow Depth Not available.
7:42 AM 4:29 PM
Waxing Crescent, 23% visible
METAR KAIT 041353Z AUTO 15009KT 5SM -SN OVC010 00/M03 A2985 RMK AO2

10-Day Weather Forecast

Almanac

Astronomy

Dec. 04, 2016 Rise Set
Actual Time
Civil Twilight
Nautical Twilight
Astronomical Twilight
Moon
Length of Visible Light
Length of Day
Tomorrow will be .
, % of the Moon is Illuminated

Today's Extremes

State Highs State Lows

Community

WunderPhotos

Upload Photos

1,955,598 photos uploaded!

WunderBlog® & News

Nearby

Air Quality

  Air Quality AQ Index Pollutant
Not available.

Snow Depth

Station Depth Elevation

Earthquake Activity

City Distance Mag. Time & Date
Minimum magnitude displayed is 2.5.

Coastal Water Temperatures

Place Temperature

Stations

Nearby Weather Stations

Station Location Temp. Windchill Dew Point Humidity Wind Precip. Elev Updated Type
                   

Watches & Warnings

There are currently no watches in effect.